createdAt,value
2019-02-15T00:00:54.219Z,15.73
2019-02-15T00:03:27.365Z,16.00
2019-02-15T00:06:00.664Z,16.40
2019-02-15T00:08:33.773Z,14.27
2019-02-15T00:11:06.690Z,15.73
2019-02-15T00:13:40.023Z,14.20
2019-02-15T00:16:13.578Z,15.70
2019-02-15T00:18:56.501Z,13.73
2019-02-15T00:21:32.426Z,15.07
2019-02-15T00:24:05.618Z,14.93
2019-02-15T00:26:38.439Z,15.00
2019-02-15T00:29:11.493Z,18.50
2019-02-15T00:31:44.483Z,17.23
2019-02-15T00:34:17.734Z,17.37
2019-02-15T00:36:50.698Z,16.63
2019-02-15T00:39:23.662Z,17.50
2019-02-15T00:41:56.938Z,17.87
2019-02-15T00:44:29.995Z,16.40
2019-02-15T00:47:30.570Z,16.03
2019-02-15T00:50:15.254Z,18.57
2019-02-15T00:53:05.499Z,17.30
2019-02-15T00:55:51.791Z,17.97
2019-02-15T00:58:39.447Z,18.60
2019-02-15T01:01:40.438Z,21.33
2019-02-15T01:04:38.308Z,18.50
2019-02-15T01:07:30.153Z,14.57
2019-02-15T01:10:16.861Z,13.70
2019-02-15T01:13:03.453Z,12.33
2019-02-15T01:15:36.251Z,13.77
2019-02-15T01:18:10.180Z,13.60
2019-02-15T01:20:43.112Z,14.40
2019-02-15T01:23:16.098Z,13.33
2019-02-15T01:26:11.875Z,13.77
2019-02-15T01:29:11.548Z,14.13
2019-02-15T01:32:18.417Z,13.60
2019-02-15T01:35:04.704Z,13.43
2019-02-15T01:37:45.262Z,14.67
2019-02-15T01:40:34.315Z,13.80
2019-02-15T01:43:25.322Z,14.03
2019-02-15T01:46:23.404Z,13.27
2019-02-15T01:48:56.669Z,14.40
2019-02-15T01:51:29.720Z,13.83
2019-02-15T01:54:02.522Z,14.27
2019-02-15T01:56:35.389Z,14.07
2019-02-15T01:59:08.318Z,14.03
2019-02-15T02:01:43.021Z,14.57
2019-02-15T02:04:15.984Z,14.50
2019-02-15T02:06:48.819Z,14.03
2019-02-15T02:09:21.738Z,14.43
2019-02-15T02:11:54.650Z,14.70
2019-02-15T02:14:27.568Z,16.90
2019-02-15T02:17:00.441Z,15.03
2019-02-15T02:19:33.494Z,15.17
2019-02-15T02:22:08.015Z,15.57
2019-02-15T02:24:40.983Z,13.97
2019-02-15T02:27:15.373Z,16.10
2019-02-15T02:29:48.308Z,16.10
2019-02-15T02:32:21.272Z,15.73
2019-02-15T02:34:54.107Z,15.87
2019-02-15T02:37:27.038Z,16.33
2019-02-15T02:39:59.864Z,15.53
2019-02-15T02:42:32.844Z,16.13
2019-02-15T02:45:06.090Z,15.57
2019-02-15T02:47:39.191Z,14.67
2019-02-15T02:50:12.255Z,16.30
2019-02-15T02:52:45.241Z,14.83
2019-02-15T02:55:18.218Z,14.53
2019-02-15T02:57:51.301Z,15.17
2019-02-15T03:00:33.200Z,14.17
2019-02-15T03:02:58.867Z,15.77
2019-02-15T03:05:32.168Z,14.93
2019-02-15T03:08:06.583Z,14.83
2019-02-15T03:10:39.381Z,14.37
2019-02-15T03:13:12.198Z,14.17
2019-02-15T03:15:45.209Z,13.70
2019-02-15T03:18:18.058Z,14.27
2019-02-15T03:20:50.929Z,14.47
2019-02-15T03:23:24.080Z,14.10
2019-02-15T03:25:56.907Z,13.23
2019-02-15T03:28:30.168Z,12.97
2019-02-15T03:31:03.088Z,13.20
2019-02-15T03:33:36.042Z,13.13
2019-02-15T03:36:11.091Z,13.33
2019-02-15T03:38:58.249Z,12.10
2019-02-15T03:41:33.411Z,12.73
2019-02-15T03:44:06.562Z,11.83
2019-02-15T03:46:39.403Z,14.93
2019-02-15T03:49:12.250Z,14.27
2019-02-15T03:51:45.093Z,13.87
2019-02-15T03:54:19.233Z,13.50
2019-02-15T03:56:52.283Z,14.80
2019-02-15T03:59:25.432Z,13.93
2019-02-15T04:01:58.297Z,14.03
2019-02-15T04:04:31.545Z,13.50
2019-02-15T04:07:04.462Z,11.97
2019-02-15T04:09:37.362Z,11.57
2019-02-15T04:12:10.432Z,11.73
2019-02-15T04:14:43.385Z,13.83
2019-02-15T04:17:16.477Z,13.47
2019-02-15T04:19:49.432Z,11.73
2019-02-15T04:22:22.243Z,12.30
2019-02-15T04:24:55.183Z,11.53
2019-02-15T04:27:28.252Z,11.93
2019-02-15T04:30:01.324Z,11.00
2019-02-15T04:32:34.270Z,11.00
2019-02-15T04:35:07.420Z,12.30
2019-02-15T04:37:40.185Z,9.83
2019-02-15T04:40:13.155Z,10.00
2019-02-15T04:42:45.923Z,9.93
2019-02-15T04:45:18.811Z,10.47
2019-02-15T04:47:51.809Z,11.10
2019-02-15T04:50:24.815Z,10.73
2019-02-15T04:52:57.741Z,11.50
2019-02-15T04:55:30.627Z,11.47
2019-02-15T04:58:03.488Z,10.67
2019-02-15T05:00:36.401Z,10.67
2019-02-15T05:03:09.290Z,13.13
2019-02-15T05:05:42.392Z,14.77
2019-02-15T05:08:15.483Z,13.70
2019-02-15T05:10:48.453Z,13.33
2019-02-15T05:13:21.524Z,12.00
2019-02-15T05:15:54.636Z,14.27
2019-02-15T05:18:27.821Z,14.60
2019-02-15T05:21:01.081Z,18.90
2019-02-15T05:23:34.112Z,15.43
2019-02-15T05:26:07.340Z,15.03
2019-02-15T05:28:40.592Z,15.03
2019-02-15T05:31:33.878Z,17.17
2019-02-15T05:34:06.953Z,18.13
2019-02-15T05:36:40.019Z,16.23
2019-02-15T05:39:13.443Z,17.30
2019-02-15T05:41:46.512Z,15.83
2019-02-15T05:44:20.927Z,16.13
2019-02-15T05:46:53.974Z,17.07
2019-02-15T05:49:27.527Z,16.90
2019-02-15T05:52:00.480Z,16.47
2019-02-15T05:54:33.420Z,17.90
2019-02-15T05:57:06.531Z,18.93
2019-02-15T05:59:41.278Z,19.53
2019-02-15T06:02:15.687Z,19.13
2019-02-15T06:04:48.694Z,17.57
2019-02-15T06:07:22.079Z,19.17
2019-02-15T06:09:56.264Z,19.00
2019-02-15T06:12:29.729Z,19.17
2019-02-15T06:15:02.881Z,17.40
2019-02-15T06:17:36.761Z,17.57
2019-02-15T06:20:10.389Z,16.70
2019-02-15T06:22:43.623Z,15.20
2019-02-15T06:25:16.820Z,16.00
2019-02-15T06:27:50.035Z,25.53
2019-02-15T06:30:23.235Z,27.17
2019-02-15T06:32:56.316Z,48.90
2019-02-15T06:35:29.607Z,47.40
2019-02-15T06:38:03.013Z,37.47
2019-02-15T06:40:36.022Z,28.73
2019-02-15T06:43:09.099Z,23.13
2019-02-15T06:45:42.186Z,23.20
2019-02-15T06:48:15.227Z,20.00
2019-02-15T06:50:47.983Z,17.33
2019-02-15T06:53:22.463Z,17.70
2019-02-15T06:55:55.284Z,16.80
2019-02-15T06:58:28.581Z,17.17
2019-02-15T07:01:26.219Z,15.37
2019-02-15T07:04:18.781Z,12.63
2019-02-15T07:06:52.028Z,15.67
2019-02-15T07:09:25.351Z,14.07
2019-02-15T07:11:58.567Z,15.80
2019-02-15T07:14:32.198Z,14.50
2019-02-15T07:17:05.509Z,15.07
2019-02-15T07:19:38.493Z,17.13
2019-02-15T07:22:11.729Z,20.50
2019-02-15T07:24:47.190Z,15.33
2019-02-15T07:27:20.053Z,13.50
2019-02-15T07:29:53.222Z,13.23
2019-02-15T07:35:20.133Z,15.93
2019-02-15T07:37:53.218Z,13.17
2019-02-15T07:40:26.728Z,12.10
2019-02-15T07:42:59.864Z,14.47
2019-02-15T07:45:37.047Z,14.80
2019-02-15T07:48:07.932Z,10.30
2019-02-15T07:50:41.122Z,11.77
2019-02-15T07:53:15.344Z,12.23
2019-02-15T07:55:48.602Z,10.10
2019-02-15T07:58:21.544Z,11.93
2019-02-15T08:00:54.883Z,11.87
2019-02-15T08:03:27.987Z,8.73
2019-02-15T08:06:00.884Z,12.70
2019-02-15T08:08:33.814Z,8.53
2019-02-15T08:11:06.658Z,10.40
2019-02-15T08:13:39.610Z,10.20
2019-02-15T08:16:12.580Z,11.20
2019-02-15T08:18:47.100Z,12.00
2019-02-15T08:21:20.374Z,11.03
2019-02-15T08:23:53.413Z,11.47
2019-02-15T08:26:26.225Z,7.37
2019-02-15T08:28:59.009Z,9.97
2019-02-15T08:31:31.809Z,7.03
2019-02-15T08:34:05.023Z,4.03
2019-02-15T08:36:38.151Z,3.10
2019-02-15T08:39:11.232Z,4.83
2019-02-15T08:42:00.244Z,2.77
2019-02-15T08:44:18.629Z,2.90
2019-02-15T08:46:51.552Z,2.80
2019-02-15T08:49:24.636Z,4.00
2019-02-15T08:51:57.419Z,4.53
2019-02-15T08:54:30.178Z,3.23
2019-02-15T08:57:02.992Z,2.90
2019-02-15T08:59:36.377Z,2.57
2019-02-15T09:02:28.195Z,3.50
2019-02-15T09:05:02.168Z,23.97
2019-02-15T09:07:35.832Z,21.03
2019-02-15T09:10:11.115Z,26.03
2019-02-15T09:12:44.331Z,33.57
2019-02-15T09:15:20.516Z,4.10
2019-02-15T09:17:54.833Z,4.83
2019-02-15T09:20:28.173Z,2.17
2019-02-15T09:23:01.001Z,3.33
2019-02-15T09:25:34.180Z,4.17
2019-02-15T09:28:22.685Z,4.23
2019-02-15T09:30:55.965Z,5.27
2019-02-15T09:33:28.947Z,5.20
2019-02-15T09:38:55.421Z,2.53
2019-02-15T09:41:28.088Z,3.07
2019-02-15T09:44:01.165Z,2.40
2019-02-15T09:46:34.095Z,1.97
2019-02-15T09:49:07.259Z,2.57
2019-02-15T09:51:40.288Z,1.70
2019-02-15T09:54:13.287Z,1.83
2019-02-15T09:56:46.613Z,2.00
2019-02-15T09:59:19.500Z,2.13
2019-02-15T10:01:52.529Z,2.13
2019-02-15T10:04:25.413Z,3.00
2019-02-15T10:06:58.249Z,2.23
2019-02-15T10:09:31.125Z,2.17
2019-02-15T10:12:04.286Z,2.60
2019-02-15T10:14:37.502Z,2.60
2019-02-15T10:17:10.276Z,1.70
2019-02-15T10:19:43.758Z,3.40
2019-02-15T10:22:16.897Z,1.70
2019-02-15T10:24:50.078Z,2.20
2019-02-15T10:27:23.153Z,2.00
2019-02-15T10:29:56.200Z,2.27
2019-02-15T10:32:29.338Z,2.10
2019-02-15T10:35:02.992Z,2.37
2019-02-15T10:37:36.171Z,2.90
2019-02-15T10:40:09.504Z,3.70
2019-02-15T10:42:42.710Z,2.00
2019-02-15T10:45:16.218Z,2.13
2019-02-15T10:47:49.180Z,2.50
2019-02-15T10:50:22.172Z,3.70
2019-02-15T10:52:55.351Z,5.33
2019-02-15T10:55:28.589Z,6.67
2019-02-15T10:58:01.804Z,3.90
2019-02-15T11:00:34.706Z,30.90
2019-02-15T11:03:07.779Z,7.67
2019-02-15T11:08:45.514Z,7.00
2019-02-15T11:11:18.495Z,17.03
2019-02-15T11:13:51.311Z,3.80
2019-02-15T11:16:24.812Z,11.17
2019-02-15T11:18:57.779Z,9.23
2019-02-15T11:21:30.775Z,4.87
2019-02-15T11:24:03.681Z,6.53
2019-02-15T11:26:36.680Z,3.73
2019-02-15T11:29:09.550Z,7.63
2019-02-15T11:31:42.686Z,4.80
2019-02-15T11:34:15.480Z,3.17
2019-02-15T11:36:48.831Z,2.70
2019-02-15T11:39:21.952Z,3.63
2019-02-15T11:41:55.124Z,5.57
2019-02-15T11:44:28.101Z,4.53
2019-02-15T11:47:01.279Z,3.17
2019-02-15T11:49:34.456Z,3.90
2019-02-15T11:52:07.667Z,3.87
2019-02-15T11:54:40.511Z,3.30
2019-02-15T11:57:13.306Z,2.90
2019-02-15T11:59:46.721Z,4.40
2019-02-15T12:02:20.058Z,3.80
2019-02-15T12:04:53.152Z,3.50
2019-02-15T12:07:26.616Z,2.80
2019-02-15T12:09:59.337Z,3.50
2019-02-15T12:12:32.324Z,3.90
2019-02-15T12:15:05.427Z,3.53
2019-02-15T12:17:38.488Z,3.80
2019-02-15T12:20:12.149Z,3.10
2019-02-15T12:22:45.904Z,4.00
2019-02-15T12:25:19.026Z,4.13
2019-02-15T12:27:52.080Z,3.80
2019-02-15T12:30:25.974Z,11.00
2019-02-15T12:32:59.250Z,5.10
2019-02-15T12:35:32.188Z,8.53
2019-02-15T12:38:05.206Z,6.77
2019-02-15T12:40:38.239Z,6.17
2019-02-15T12:43:11.613Z,5.70
2019-02-15T12:45:44.539Z,4.30
2019-02-15T12:48:17.550Z,6.07
2019-02-15T12:50:50.494Z,3.93
2019-02-15T12:53:23.321Z,6.93
2019-02-15T12:55:56.346Z,4.93
2019-02-15T12:58:29.247Z,4.47
2019-02-15T13:01:02.271Z,5.50
2019-02-15T13:03:35.353Z,5.37
2019-02-15T13:06:08.690Z,4.67
2019-02-15T13:08:41.919Z,5.53
2019-02-15T13:11:15.398Z,3.80
2019-02-15T13:13:51.710Z,5.10
2019-02-15T13:16:25.433Z,6.30
2019-02-15T13:18:58.697Z,4.77
2019-02-15T13:21:31.927Z,5.07
2019-02-15T13:24:05.051Z,4.87
2019-02-15T13:26:38.414Z,5.63
2019-02-15T13:29:11.533Z,14.00
2019-02-15T13:31:44.659Z,6.63
2019-02-15T13:34:17.564Z,6.23
2019-02-15T13:36:50.396Z,8.10
2019-02-15T13:39:31.241Z,5.20
2019-02-15T13:42:04.202Z,4.27
2019-02-15T13:44:37.172Z,4.73
2019-02-15T13:47:12.289Z,10.60
2019-02-15T13:49:45.569Z,7.87
2019-02-15T13:52:18.722Z,6.73
2019-02-15T13:54:55.051Z,5.33
2019-02-15T13:57:28.130Z,4.93
2019-02-15T14:00:00.968Z,3.80
2019-02-15T14:02:33.979Z,8.20
2019-02-15T14:05:09.663Z,5.07
2019-02-15T14:07:42.726Z,7.70
2019-02-15T14:10:16.529Z,14.33
2019-02-15T14:12:49.714Z,26.87
2019-02-15T14:15:23.552Z,32.57
2019-02-15T14:17:57.312Z,52.07
2019-02-15T14:20:31.167Z,14.53
2019-02-15T14:23:04.900Z,18.30
2019-02-15T14:25:38.304Z,7.23
2019-02-15T14:28:11.761Z,17.10
2019-02-15T14:30:44.982Z,7.63
2019-02-15T14:33:18.195Z,9.20
2019-02-15T14:35:51.422Z,5.37
2019-02-15T14:38:25.260Z,4.73
2019-02-15T14:40:58.428Z,7.80
2019-02-15T14:43:32.136Z,7.03
2019-02-15T14:46:05.318Z,5.97
2019-02-15T14:48:39.227Z,6.03
2019-02-15T14:51:12.648Z,6.50
2019-02-15T14:53:45.907Z,10.20
2019-02-15T14:56:19.963Z,16.20
2019-02-15T14:58:54.680Z,9.03
2019-02-15T15:01:27.882Z,12.47
2019-02-15T15:04:01.261Z,12.20
2019-02-15T15:06:34.603Z,8.23
2019-02-15T15:09:10.024Z,7.63
2019-02-15T15:11:48.674Z,7.70
2019-02-15T15:14:30.166Z,8.57
2019-02-15T15:17:12.073Z,8.13
2019-02-15T15:19:58.158Z,9.13
2019-02-15T15:22:41.978Z,7.17
2019-02-15T15:25:26.185Z,6.87
2019-02-15T15:28:06.868Z,7.50
2019-02-15T15:30:48.195Z,6.83
2019-02-15T15:33:27.669Z,7.90
2019-02-15T15:36:04.774Z,9.10
2019-02-15T15:38:43.412Z,7.00
2019-02-15T15:41:25.782Z,6.43
2019-02-15T15:44:08.665Z,6.30
2019-02-15T15:46:49.443Z,5.10
2019-02-15T15:49:31.392Z,4.83
2019-02-15T15:52:19.179Z,5.07
2019-02-15T15:55:06.672Z,4.87
2019-02-15T15:57:45.629Z,5.33
2019-02-15T16:00:22.721Z,5.60
2019-02-15T16:03:01.816Z,5.57
2019-02-15T16:05:43.090Z,8.50
2019-02-15T16:08:23.296Z,9.00
2019-02-15T16:11:02.618Z,10.37
2019-02-15T16:13:46.888Z,26.80
2019-02-15T16:16:29.095Z,19.33
2019-02-15T16:19:09.741Z,10.23
2019-02-15T16:21:47.246Z,11.60
2019-02-15T16:24:28.466Z,9.23
2019-02-15T16:27:09.422Z,9.40
2019-02-15T16:29:51.329Z,9.30
2019-02-15T16:32:31.659Z,10.00
2019-02-15T16:35:09.736Z,8.67
2019-02-15T16:37:53.609Z,10.70
2019-02-15T16:40:36.137Z,9.40
2019-02-15T16:43:11.163Z,7.50
2019-02-15T16:45:55.795Z,6.33
2019-02-15T16:48:42.038Z,6.37
2019-02-15T16:51:23.601Z,7.27
2019-02-15T16:54:03.787Z,9.97
2019-02-15T16:56:49.530Z,11.63
2019-02-15T16:59:32.452Z,12.07
2019-02-15T17:02:11.319Z,17.13
2019-02-15T17:04:53.034Z,18.97
2019-02-15T17:07:34.784Z,26.20
2019-02-15T17:10:15.442Z,29.27
2019-02-15T17:12:56.598Z,23.83
2019-02-15T17:15:38.353Z,25.40
2019-02-15T17:18:17.759Z,16.90
2019-02-15T17:20:58.430Z,14.30
2019-02-15T17:23:41.682Z,16.33
2019-02-15T17:26:26.182Z,20.47
2019-02-15T17:29:05.727Z,19.77
2019-02-15T17:31:51.319Z,15.90
2019-02-15T17:34:30.924Z,17.23
2019-02-15T17:37:11.875Z,16.77
2019-02-15T17:39:50.480Z,23.70
2019-02-15T17:42:29.630Z,11.40
2019-02-15T17:45:08.210Z,12.60
2019-02-15T17:47:50.887Z,12.10
2019-02-15T17:50:33.400Z,12.43
2019-02-15T17:53:11.517Z,13.30
2019-02-15T17:55:52.288Z,9.27
2019-02-15T17:58:39.792Z,13.17
2019-02-15T18:01:18.996Z,14.90
2019-02-15T18:04:01.951Z,17.60
2019-02-15T18:06:46.623Z,18.13
2019-02-15T18:09:30.038Z,13.93
2019-02-15T18:12:12.049Z,12.90
2019-02-15T18:14:52.575Z,15.07
2019-02-15T18:17:32.976Z,16.60
2019-02-15T18:20:11.353Z,14.67
2019-02-15T18:22:51.414Z,13.13
2019-02-15T18:25:31.053Z,14.30
2019-02-15T18:28:11.678Z,14.00
2019-02-15T18:30:54.455Z,16.23
2019-02-15T18:33:42.038Z,12.67
2019-02-15T18:36:24.101Z,19.03
2019-02-15T18:39:05.608Z,17.00
2019-02-15T18:41:45.076Z,11.67
2019-02-15T18:44:27.949Z,10.40
2019-02-15T18:47:06.479Z,12.33
2019-02-15T18:49:56.391Z,20.30
2019-02-15T18:52:38.216Z,17.50
2019-02-15T18:55:13.138Z,14.77
2019-02-15T18:57:51.183Z,11.57
2019-02-15T19:00:43.748Z,10.90
2019-02-15T19:03:31.181Z,12.53
2019-02-15T19:06:10.883Z,13.17
2019-02-15T19:08:50.258Z,14.47
2019-02-15T19:11:31.098Z,40.53
2019-02-15T19:14:13.807Z,21.83
2019-02-15T19:16:57.267Z,33.83
2019-02-15T19:19:38.299Z,15.00
2019-02-15T19:22:23.473Z,15.37
2019-02-15T19:25:00.879Z,25.10
2019-02-15T19:28:02.049Z,21.67
2019-02-15T19:30:39.046Z,18.77
2019-02-15T19:33:21.384Z,29.53
2019-02-15T19:36:07.254Z,18.87
2019-02-15T19:38:43.266Z,19.43
2019-02-15T19:41:22.342Z,20.77
2019-02-15T19:44:03.846Z,24.47
2019-02-15T19:46:44.657Z,34.57
2019-02-15T19:49:38.793Z,35.10
2019-02-15T19:52:17.498Z,22.73
2019-02-15T19:55:10.143Z,26.97
2019-02-15T19:57:43.344Z,27.47
2019-02-15T20:00:19.257Z,26.87
2019-02-15T20:02:52.903Z,26.90
2019-02-15T20:05:26.256Z,25.87
2019-02-15T20:07:59.611Z,23.93
2019-02-15T20:10:33.089Z,27.00
2019-02-15T20:13:06.509Z,30.57
2019-02-15T20:15:39.823Z,28.33
2019-02-15T20:18:13.132Z,27.27
2019-02-15T20:20:46.275Z,25.03
2019-02-15T20:23:19.746Z,26.93
2019-02-15T20:25:53.360Z,24.13
2019-02-15T20:28:26.787Z,25.93
2019-02-15T20:31:02.659Z,43.57
2019-02-15T20:33:36.010Z,36.60
2019-02-15T20:36:09.394Z,37.37
2019-02-15T20:38:42.880Z,36.00
2019-02-15T20:41:16.274Z,33.93
2019-02-15T20:43:52.072Z,28.33
2019-02-15T20:46:25.242Z,28.10
2019-02-15T20:49:04.713Z,25.07
2019-02-15T20:51:33.020Z,24.20
2019-02-15T20:54:05.919Z,24.90
2019-02-15T20:56:39.243Z,22.87
2019-02-15T20:59:12.586Z,23.93
2019-02-15T21:01:47.490Z,20.10
2019-02-15T21:04:21.088Z,20.87
2019-02-15T21:06:54.519Z,17.60
2019-02-15T21:09:28.296Z,20.93
2019-02-15T21:12:01.613Z,21.33
2019-02-15T21:14:35.483Z,20.30
2019-02-15T21:17:08.765Z,14.37
2019-02-15T21:19:41.552Z,13.70
2019-02-15T21:22:14.925Z,17.77
2019-02-15T21:24:48.303Z,16.00
2019-02-15T21:27:21.578Z,17.00
2019-02-15T21:29:54.507Z,15.10
2019-02-15T21:32:27.514Z,13.73
2019-02-15T21:35:00.947Z,13.73
2019-02-15T21:37:34.070Z,12.63
2019-02-15T21:40:09.694Z,11.70
2019-02-15T21:42:43.073Z,12.57
2019-02-15T21:45:16.384Z,11.43
2019-02-15T21:47:49.585Z,13.20
2019-02-15T21:50:22.776Z,15.57
2019-02-15T21:52:55.792Z,14.00
2019-02-15T21:55:28.869Z,16.23
2019-02-15T21:58:10.796Z,18.70
2019-02-15T22:00:52.305Z,20.57
2019-02-15T22:03:27.807Z,22.97
2019-02-15T22:06:07.291Z,22.10
2019-02-15T22:08:48.574Z,16.90
2019-02-15T22:11:30.165Z,16.60
2019-02-15T22:14:15.750Z,14.50
2019-02-15T22:16:55.548Z,16.17
2019-02-15T22:19:34.715Z,14.00
2019-02-15T22:22:15.816Z,13.87
2019-02-15T22:24:59.051Z,13.20
2019-02-15T22:27:38.572Z,12.20
2019-02-15T22:30:16.935Z,12.67
2019-02-15T22:32:50.200Z,12.33
2019-02-15T22:35:30.544Z,14.13
2019-02-15T22:38:06.120Z,19.90
2019-02-15T22:40:42.757Z,13.87
2019-02-15T22:43:23.271Z,10.13
2019-02-15T22:46:05.044Z,9.67
2019-02-15T22:48:43.939Z,9.93
2019-02-15T22:51:18.048Z,11.10
2019-02-15T22:54:02.447Z,10.90
2019-02-15T22:56:43.567Z,8.83
2019-02-15T22:59:24.433Z,8.40
2019-02-15T23:02:01.838Z,7.60
2019-02-15T23:04:44.250Z,8.87
2019-02-15T23:07:23.679Z,8.07
2019-02-15T23:10:07.112Z,7.40
2019-02-15T23:12:47.393Z,7.63
2019-02-15T23:15:27.260Z,7.20
2019-02-15T23:18:06.878Z,6.93
2019-02-15T23:20:45.544Z,6.57
2019-02-15T23:23:26.640Z,7.50
2019-02-15T23:26:06.787Z,9.07
2019-02-15T23:28:43.220Z,9.40
2019-02-15T23:31:17.882Z,10.20
2019-02-15T23:33:50.908Z,8.90
2019-02-15T23:36:23.586Z,7.53
2019-02-15T23:38:56.488Z,7.50
2019-02-15T23:41:29.388Z,6.57
2019-02-15T23:44:02.316Z,7.63
2019-02-15T23:46:35.525Z,7.47
2019-02-15T23:49:08.577Z,7.50
2019-02-15T23:51:41.596Z,10.97
2019-02-15T23:54:14.934Z,12.07
2019-02-15T23:56:48.105Z,14.03
2019-02-15T23:59:21.318Z,12.63
